Kezdőlap
METAR-TAF:

METAR-TAF

Repülőterek :

Mahiljov, Fehéroroszország

földrajzi szélesség: 53-57-18N, földrajzi hosszúság: 030-05-42E, magasság: 194 m

Jelenlegi meteorológiai megfigyelések

A jelentés 52 perccel ezelõtt készült, 09:00 UTC
Észak-északkeleti szél 4 kt
Hőmérséklet 19°C
Páratartalom 30%
Légköri nyomás 1031 hPa
Látótávolság 10 km, vagy több
felhőtlen 1500 m magasságban, és nincs gomolyfelhõ

METAR: UMOO 230900Z 02002MPS CAVOK 19/01 Q1031 R31/CLRD// NOSIG

Idő: 12:52 (09:52 UTC)

Előrejelzés

A jelentés 1 órával és 52 perccel ezelõtt készült, 08:00 UTC
Az előrejelzés 23-én 09 óra UTC és 23-én 18 óra UTC között érvényes
Észak-északkeleti szél 10 kt
Látótávolság 10 km, vagy több
Szórványos felhőzet 2500 lábon
23-én 09 óra UTC és 23-én 18 óra UTC között ideiglenes
Kelet-északkeleti szél 10 kt

TAF: UMOO 230800Z 2309/2318 02005MPS 9999 SCT025 TEMPO 2309/2318 07005MPS

Meteorológiai megfigyelések és előrejelzések több, mint 4000 repülőtéren (METAR és TAF jelentéseket).

A térképen piros és sárga pontok jelzik az elérhető meteorológiai állomásokat.

Mozgassa az egeret a pont fölött, hogy megjelenjen az állomás neve.

Azután kattintson az időjárási megfigyelések és előrejelzések megtekintéséhez.

A térkép megváltoztatása: kattintson a fekete keresztel jelölt zöld gombra ráközelítéshez, a vonallal jelölt zöld gombra távolításhoz, vagy a zöld nyilakra a szomszédos térképek eléréséhez.


METAR-TAF: